EDDMLGKR

Guest
Details From EDDM - Muenchen Franz-josef Strauss
To LGKR - Ioannis Kapodistrias Intl
Flight Number -
Tags Generated
Created
Modified
Stats Distance 631 nm / 1,169 km
Max Altitude 0 ft / 0 m
Waypoints 4
Social Downloads 1
Likes 0
Share VATSIM

Download

Looking for another format? Having issues loading an existing format? Contact us
Advertisement - Login to hide

Notes

Generated

Route

EDDM DIGOT GAR02 LGKR

ID Type Via Altitude Latitude Longitude Leg Dist Tot Dist Heading (true) Name
O EDDM APT - 0 ft / 0 m 48.34069˚ 11.75108˚ - 0 nm - -
DIGOT FIX - 0 ft / 0 m 44.39000˚ 15.66778˚ 287 nm 287 nm 144° / 147° -
GAR02 FIX - 0 ft / 0 m 39.63925˚ 19.90187˚ 342 nm 629 nm 145° / 148° -
O LGKR APT - 0 ft / 0 m 39.61228˚ 19.90921˚ 1 nm 631 nm 168° / 168° -

Altitude Profile

Advertisement - Login to hide

Weather


0- 5 10 15 20 25 30 35+ Temperature / ° C

Clouds and Precipitation
Forecast for 2018-05-23 06:00 UTC. Updated 20 minutes ago

Ground ~20,000 ft ~40,000 ft Winds

EDDM

Details ICAO EDDM (MUC)
Name Muenchen Franz-Josef Strauss
Region Germany - Civil
Timezone Europe/Berlin (UTC+2.0)
Stats Elevation 1,487 ft / 453 m (AMSL)
Location 48.353786° 11.786117°
Runways 2
Magnetic Variation 3.214° E

METAR

EDDM 230320Z 22003KT 180V280 CAVOK 13/12 Q1015 NOSIG

Decode

TAF

TAF EDDM 222300Z 2300/2406 VRB02KT 9999 FEW040 BECMG 2309/2311 06005KT PROB30 TEMPO 2316/2322 TSRA BKN035CB BECMG 2319/2321 VRB03KT PROB30 TEMPO 2322/2406 RA PROB30 TEMPO 2403/2406 BKN008

Decode

Departure Runways

ID Width Length Bearing (true) Bearing (mag) Surface Threshold Offset Overrun Length
08L 197 ft / 60 m 13,086 ft / 3,989 m 83.38° 80.17° Concrete 0 ft / 0 m 0 ft / 0 m
08R 197 ft / 60 m 13,086 ft / 3,989 m 83.37° 80.16° Concrete 0 ft / 0 m 0 ft / 0 m
26L 197 ft / 60 m 13,086 ft / 3,989 m 263.41° 260.20° Concrete 0 ft / 0 m 0 ft / 0 m
26R 197 ft / 60 m 13,086 ft / 3,989 m 263.42° 260.21° Concrete 0 ft / 0 m 0 ft / 0 m

LGKR

Details ICAO LGKR (CFU)
Name IOANNIS KAPODISTRIAS INTL
Region Greece
Timezone Europe/Athens (UTC+3.0)
Stats Elevation 6 ft / 2 m (AMSL)
Location 39.601779° 19.911908°
Runways 1
Magnetic Variation 4.142° E

METAR

LGKR 230320Z VRB02KT 9999 FEW018 SCT070 19/18 Q1013 NOSIG

Decode

TAF

TAF LGKR 222300Z 2300/2324 VRB05KT 9999 FEW025 PROB40 TEMPO 2308/2324 5000 RA SCT020 BKN080 PROB30 TEMPO 2312/2324 4000 TSRA FEW018CB SCT020 BKN060

Decode

Destination Runways

ID Width Length Bearing (true) Bearing (mag) Surface Threshold Offset Overrun Length
17 148 ft / 45 m 7,815 ft / 2,382 m 168.81° 164.67° Asphalt 1,348 ft / 411 m 0 ft / 0 m
35 148 ft / 45 m 7,815 ft / 2,382 m 348.81° 344.67° Asphalt 213 ft / 65 m 0 ft / 0 m

Popular Alternatives